createdAt,value
2023-03-15T00:00:03.896Z,22.82
2023-03-15T00:00:39.539Z,22.82
2023-03-15T00:01:15.412Z,22.88
2023-03-15T00:01:51.382Z,22.90
2023-03-15T00:02:27.491Z,22.85
2023-03-15T00:03:03.001Z,22.90
2023-03-15T00:03:39.202Z,22.88
2023-03-15T00:04:15.275Z,22.82
2023-03-15T00:04:51.104Z,22.81
2023-03-15T00:05:26.094Z,22.88
2023-03-15T00:06:02.228Z,22.82
2023-03-15T00:06:38.361Z,22.78
2023-03-15T00:07:14.133Z,22.77
2023-03-15T00:07:50.390Z,22.76
2023-03-15T00:08:25.865Z,22.74
2023-03-15T00:09:01.976Z,22.78
2023-03-15T00:09:38.266Z,22.84
2023-03-15T00:10:13.579Z,22.81
2023-03-15T00:10:48.789Z,22.77
2023-03-15T00:11:24.934Z,22.79
2023-03-15T00:12:01.062Z,22.81
2023-03-15T00:12:37.527Z,22.79
2023-03-15T00:13:13.568Z,22.78
2023-03-15T00:13:49.673Z,22.76
2023-03-15T00:14:25.530Z,22.76
2023-03-15T00:15:01.182Z,22.79
2023-03-15T00:15:37.369Z,22.76
2023-03-15T00:16:13.291Z,22.75
2023-03-15T00:16:49.120Z,22.77
2023-03-15T00:17:25.764Z,22.81
2023-03-15T00:18:01.495Z,22.80
2023-03-15T00:18:37.591Z,22.78
2023-03-15T00:19:13.933Z,22.79
2023-03-15T00:19:50.061Z,22.85
2023-03-15T00:20:25.624Z,22.83
2023-03-15T00:21:01.556Z,22.77
2023-03-15T00:21:37.181Z,22.81
2023-03-15T00:22:12.841Z,22.77
2023-03-15T00:22:49.155Z,22.77
2023-03-15T00:23:25.789Z,22.77
2023-03-15T00:24:02.137Z,22.77
2023-03-15T00:24:38.202Z,22.82
2023-03-15T00:25:14.347Z,22.82
2023-03-15T00:25:49.981Z,22.78
2023-03-15T00:26:25.407Z,22.78
2023-03-15T00:27:01.351Z,22.79
2023-03-15T00:27:37.637Z,22.79
2023-03-15T00:28:13.525Z,22.75
2023-03-15T00:28:49.463Z,22.74
2023-03-15T00:29:25.900Z,22.75
2023-03-15T00:30:01.983Z,22.75
2023-03-15T00:30:37.657Z,22.77
2023-03-15T00:31:13.263Z,22.81
2023-03-15T00:31:49.240Z,22.81
2023-03-15T00:32:25.743Z,22.79
2023-03-15T00:33:01.841Z,22.81
2023-03-15T00:33:37.809Z,22.81
2023-03-15T00:34:13.710Z,22.78
2023-03-15T00:34:49.629Z,22.74
2023-03-15T00:35:25.961Z,22.77
2023-03-15T00:36:02.055Z,22.78
2023-03-15T00:36:37.170Z,22.78
2023-03-15T00:37:13.776Z,22.80
2023-03-15T00:37:49.490Z,22.77
2023-03-15T00:38:25.091Z,22.78
2023-03-15T00:39:01.356Z,22.81
2023-03-15T00:39:37.506Z,22.81
2023-03-15T00:40:13.945Z,22.79
2023-03-15T00:40:50.212Z,22.76
2023-03-15T00:41:25.800Z,22.79
2023-03-15T00:42:00.754Z,22.78
2023-03-15T00:42:37.141Z,22.80
2023-03-15T00:43:13.411Z,22.77
2023-03-15T00:43:49.533Z,22.75
2023-03-15T00:44:26.078Z,22.77
2023-03-15T00:45:02.463Z,22.76
2023-03-15T00:45:38.225Z,22.74
2023-03-15T00:46:14.149Z,22.72
2023-03-15T00:46:50.045Z,22.72
2023-03-15T00:47:25.404Z,22.76
2023-03-15T00:48:01.589Z,22.73
2023-03-15T00:48:37.485Z,22.73
2023-03-15T00:49:13.431Z,22.71
2023-03-15T00:49:49.513Z,22.70
2023-03-15T00:50:25.732Z,22.74
2023-03-15T00:51:02.087Z,22.72
2023-03-15T00:51:38.048Z,22.72
2023-03-15T00:52:13.755Z,22.73
2023-03-15T00:52:49.161Z,22.71
2023-03-15T00:53:25.739Z,22.72
2023-03-15T00:54:02.250Z,22.71
2023-03-15T00:54:37.836Z,22.73
2023-03-15T00:55:14.318Z,22.74
2023-03-15T00:55:50.534Z,22.72
2023-03-15T00:56:26.818Z,22.71
2023-03-15T00:57:03.006Z,22.72
2023-03-15T00:57:38.625Z,22.73
2023-03-15T00:58:14.281Z,22.72
2023-03-15T00:58:50.638Z,22.72
2023-03-15T00:59:26.305Z,22.71
2023-03-15T01:00:02.919Z,22.71
2023-03-15T01:00:38.562Z,22.71
2023-03-15T01:01:15.141Z,22.70
2023-03-15T01:01:50.697Z,22.69
2023-03-15T01:02:26.795Z,22.76
2023-03-15T01:03:02.231Z,22.73
2023-03-15T01:03:37.658Z,22.73
2023-03-15T01:04:13.583Z,22.78
2023-03-15T01:04:49.571Z,22.74
2023-03-15T01:05:25.553Z,22.72
2023-03-15T01:06:01.644Z,22.70
2023-03-15T01:06:37.762Z,22.75
2023-03-15T01:07:13.793Z,22.73
2023-03-15T01:07:49.335Z,22.72
2023-03-15T01:08:25.101Z,22.72
2023-03-15T01:09:00.292Z,22.70
2023-03-15T01:09:36.230Z,22.69
2023-03-15T01:10:12.514Z,22.68
2023-03-15T01:10:48.511Z,22.67
2023-03-15T01:11:24.622Z,22.76
2023-03-15T01:12:00.206Z,22.73
2023-03-15T01:12:36.716Z,22.69
2023-03-15T01:13:12.229Z,22.69
2023-03-15T01:13:48.006Z,22.73
2023-03-15T01:14:23.552Z,22.78
2023-03-15T01:14:59.337Z,22.77
2023-03-15T01:15:35.347Z,22.75
2023-03-15T01:16:11.487Z,22.76
2023-03-15T01:16:47.580Z,22.73
2023-03-15T01:17:23.438Z,22.73
2023-03-15T01:17:59.004Z,22.69
2023-03-15T01:18:35.255Z,22.69
2023-03-15T01:19:10.810Z,22.75
2023-03-15T01:19:46.417Z,22.73
2023-03-15T01:20:21.998Z,22.73
2023-03-15T01:20:58.254Z,22.73
2023-03-15T01:21:33.929Z,22.74
2023-03-15T01:22:09.831Z,22.75
2023-03-15T01:22:46.263Z,22.74
2023-03-15T01:23:22.475Z,22.74
2023-03-15T01:23:57.937Z,22.80
2023-03-15T01:24:33.993Z,22.74
2023-03-15T01:25:09.391Z,22.72
2023-03-15T01:25:45.324Z,22.72
2023-03-15T01:26:21.285Z,22.72
2023-03-15T01:26:56.885Z,22.75
2023-03-15T01:27:33.258Z,22.73
2023-03-15T01:28:09.782Z,22.73
2023-03-15T01:28:45.702Z,22.74
2023-03-15T01:29:21.496Z,22.71
2023-03-15T01:29:57.124Z,22.69
2023-03-15T01:30:32.701Z,22.69
2023-03-15T01:31:07.918Z,22.67
2023-03-15T01:31:43.371Z,22.71
2023-03-15T01:32:19.196Z,22.75
2023-03-15T01:32:55.428Z,22.72
2023-03-15T01:33:31.380Z,22.75
2023-03-15T01:34:07.335Z,22.72
2023-03-15T01:34:43.424Z,22.68
2023-03-15T01:35:19.873Z,22.65
2023-03-15T01:35:55.721Z,22.69
2023-03-15T01:36:31.298Z,22.70
2023-03-15T01:37:06.833Z,22.68
2023-03-15T01:37:42.592Z,22.75
2023-03-15T01:38:18.792Z,22.77
2023-03-15T01:38:54.813Z,22.75
2023-03-15T01:39:30.667Z,22.76
2023-03-15T01:40:07.137Z,22.73
2023-03-15T01:40:43.172Z,22.72
2023-03-15T01:41:18.917Z,22.72
2023-03-15T01:41:54.462Z,22.75
2023-03-15T01:42:30.514Z,22.73
2023-03-15T01:43:06.780Z,22.72
2023-03-15T01:43:42.488Z,22.71
2023-03-15T01:44:18.500Z,22.70
2023-03-15T01:44:54.771Z,22.68
2023-03-15T01:45:30.425Z,22.72
2023-03-15T01:46:06.962Z,22.75
2023-03-15T01:46:42.467Z,22.74
2023-03-15T01:47:17.989Z,22.73
2023-03-15T01:47:53.803Z,22.70
2023-03-15T01:48:29.921Z,22.68
2023-03-15T01:49:06.181Z,22.68
2023-03-15T01:49:42.183Z,22.69
2023-03-15T01:50:18.121Z,22.67
2023-03-15T01:50:53.636Z,22.69
2023-03-15T01:51:29.602Z,22.69
2023-03-15T01:52:05.656Z,22.71
2023-03-15T01:52:41.189Z,22.72
2023-03-15T01:53:17.286Z,22.69
2023-03-15T01:53:53.513Z,22.72
2023-03-15T01:54:29.651Z,22.70
2023-03-15T01:55:05.774Z,22.70
2023-03-15T01:55:41.248Z,22.73
2023-03-15T01:56:17.471Z,22.73
2023-03-15T01:56:53.534Z,22.70
2023-03-15T01:57:29.053Z,22.72
2023-03-15T01:58:04.749Z,22.72
2023-03-15T01:58:41.049Z,22.69
2023-03-15T01:59:17.273Z,22.66
2023-03-15T01:59:53.371Z,22.72
2023-03-15T02:00:29.179Z,22.71
2023-03-15T02:01:04.937Z,22.71
2023-03-15T02:01:41.153Z,22.74
2023-03-15T02:02:17.121Z,22.72
2023-03-15T02:02:52.294Z,22.74
2023-03-15T02:03:27.388Z,22.73
2023-03-15T02:04:03.808Z,22.72
2023-03-15T02:04:39.873Z,22.74
2023-03-15T02:05:15.742Z,22.70
2023-03-15T02:05:51.631Z,22.71
2023-03-15T02:06:27.458Z,22.67
2023-03-15T02:07:03.745Z,22.66
2023-03-15T02:07:39.980Z,22.65
2023-03-15T02:08:15.560Z,22.67
2023-03-15T02:08:51.260Z,22.66
2023-03-15T02:09:27.151Z,22.65
2023-03-15T02:10:03.472Z,22.66
2023-03-15T02:10:40.176Z,22.67
2023-03-15T02:11:16.126Z,22.68
2023-03-15T02:11:51.917Z,22.72
2023-03-15T02:12:28.090Z,22.66
2023-03-15T02:13:04.343Z,22.72
2023-03-15T02:13:40.426Z,22.75
2023-03-15T02:14:16.136Z,22.79
2023-03-15T02:14:52.150Z,22.71
2023-03-15T02:15:28.049Z,22.67
2023-03-15T02:16:04.171Z,22.65
2023-03-15T02:16:40.825Z,22.72
2023-03-15T02:17:16.952Z,22.67
2023-03-15T02:17:52.724Z,22.66
2023-03-15T02:18:28.841Z,22.61
2023-03-15T02:19:04.396Z,22.61
2023-03-15T02:19:40.340Z,22.60
2023-03-15T02:20:16.848Z,22.61
2023-03-15T02:20:52.541Z,22.62
2023-03-15T02:21:28.018Z,22.62
2023-03-15T02:22:04.282Z,22.61
2023-03-15T02:22:40.588Z,22.62
2023-03-15T02:23:17.297Z,22.63
2023-03-15T02:23:53.513Z,22.68
2023-03-15T02:24:29.083Z,22.65
2023-03-15T02:25:04.695Z,22.64
2023-03-15T02:25:40.715Z,22.63
2023-03-15T02:26:16.870Z,22.64
2023-03-15T02:26:53.203Z,22.62
2023-03-15T02:27:28.982Z,22.65
2023-03-15T02:28:04.960Z,22.71
2023-03-15T02:28:41.378Z,22.65
2023-03-15T02:29:17.357Z,22.63
2023-03-15T02:29:52.936Z,22.60
2023-03-15T02:30:28.148Z,22.65
2023-03-15T02:31:04.460Z,22.65
2023-03-15T02:31:41.362Z,22.66
2023-03-15T02:32:16.997Z,22.66
2023-03-15T02:32:53.383Z,22.66
2023-03-15T02:33:29.497Z,22.69
2023-03-15T02:34:06.063Z,22.71
2023-03-15T02:34:42.637Z,22.66
2023-03-15T02:35:18.152Z,22.71
2023-03-15T02:35:53.681Z,22.71
2023-03-15T02:36:30.085Z,22.66
2023-03-15T02:37:06.705Z,22.63
2023-03-15T02:37:43.075Z,22.65
2023-03-15T02:38:18.817Z,22.63
2023-03-15T02:38:54.962Z,22.60
2023-03-15T02:39:30.558Z,22.58
2023-03-15T02:40:07.077Z,22.57
2023-03-15T02:40:42.661Z,22.57
2023-03-15T02:41:17.506Z,22.59
2023-03-15T02:41:52.675Z,22.66
2023-03-15T02:42:29.083Z,22.71
2023-03-15T02:43:05.185Z,22.70
2023-03-15T02:43:41.260Z,22.63
2023-03-15T02:44:17.068Z,22.64
2023-03-15T02:44:53.285Z,22.58
2023-03-15T02:45:29.909Z,22.56
2023-03-15T02:46:05.574Z,22.56
2023-03-15T02:46:41.677Z,22.55
2023-03-15T02:47:16.994Z,22.59
2023-03-15T02:47:53.280Z,22.60
2023-03-15T02:48:29.356Z,22.62
2023-03-15T02:49:06.252Z,22.61
2023-03-15T02:49:41.928Z,22.61
2023-03-15T02:50:18.023Z,22.59
2023-03-15T02:50:54.137Z,22.59
2023-03-15T02:51:29.647Z,22.64
2023-03-15T02:52:04.967Z,22.64
2023-03-15T02:52:41.472Z,22.62
2023-03-15T02:53:17.621Z,22.67
2023-03-15T02:53:53.500Z,22.63
2023-03-15T02:54:29.750Z,22.61
2023-03-15T02:55:05.912Z,22.60
2023-03-15T02:55:41.749Z,22.60
2023-03-15T02:56:18.090Z,22.62
2023-03-15T02:56:53.767Z,22.58
2023-03-15T02:57:29.469Z,22.58
2023-03-15T02:58:05.632Z,22.54
2023-03-15T02:58:41.829Z,22.56
2023-03-15T02:59:18.246Z,22.59
2023-03-15T02:59:54.003Z,22.60
2023-03-15T03:00:30.079Z,22.62
2023-03-15T03:01:06.152Z,22.66
2023-03-15T03:01:42.265Z,22.63
2023-03-15T03:02:17.955Z,22.60
2023-03-15T03:02:53.496Z,22.59
2023-03-15T03:03:29.098Z,22.61
2023-03-15T03:04:05.425Z,22.60
2023-03-15T03:04:42.247Z,22.60
2023-03-15T03:05:18.380Z,22.57
2023-03-15T03:05:54.782Z,22.57
2023-03-15T03:06:31.212Z,22.54
2023-03-15T03:07:07.435Z,22.55
2023-03-15T03:07:43.647Z,22.59
2023-03-15T03:08:19.096Z,22.63
2023-03-15T03:08:55.190Z,22.59
2023-03-15T03:09:30.810Z,22.59
2023-03-15T03:10:07.254Z,22.55
2023-03-15T03:10:43.430Z,22.57
2023-03-15T03:11:18.989Z,22.56
2023-03-15T03:11:54.886Z,22.60
2023-03-15T03:12:31.402Z,22.56
2023-03-15T03:13:06.753Z,22.57
2023-03-15T03:13:43.201Z,22.54
2023-03-15T03:14:19.209Z,22.51
2023-03-15T03:14:55.190Z,22.55
2023-03-15T03:15:31.475Z,22.54
2023-03-15T03:16:07.465Z,22.55
2023-03-15T03:16:43.023Z,22.56
2023-03-15T03:17:18.650Z,22.54
2023-03-15T03:17:54.485Z,22.52
2023-03-15T03:18:30.576Z,22.59
2023-03-15T03:19:06.826Z,22.52
2023-03-15T03:19:42.892Z,22.55
2023-03-15T03:20:19.464Z,22.64
2023-03-15T03:20:55.239Z,22.63
2023-03-15T03:21:30.982Z,22.58
2023-03-15T03:22:06.605Z,22.58
2023-03-15T03:22:43.374Z,22.59
2023-03-15T03:23:19.562Z,22.60
2023-03-15T03:23:55.927Z,22.56
2023-03-15T03:24:31.423Z,22.57
2023-03-15T03:25:07.552Z,22.54
2023-03-15T03:25:44.225Z,22.52
2023-03-15T03:26:20.370Z,22.54
2023-03-15T03:26:55.911Z,22.51
2023-03-15T03:27:31.044Z,22.58
2023-03-15T03:28:07.398Z,22.59
2023-03-15T03:28:43.742Z,22.55
2023-03-15T03:29:19.414Z,22.53
2023-03-15T03:29:55.808Z,22.52
2023-03-15T03:30:31.698Z,22.53
2023-03-15T03:31:07.286Z,22.59
2023-03-15T03:31:43.579Z,22.57
2023-03-15T03:32:19.592Z,22.54
2023-03-15T03:32:54.978Z,22.55
2023-03-15T03:33:30.951Z,22.58
2023-03-15T03:34:06.961Z,22.57
2023-03-15T03:34:43.310Z,22.56
2023-03-15T03:35:19.349Z,22.54
2023-03-15T03:35:55.102Z,22.53
2023-03-15T03:36:30.865Z,22.54
2023-03-15T03:37:06.822Z,22.55
2023-03-15T03:37:42.278Z,22.59
2023-03-15T03:38:18.725Z,22.55
2023-03-15T03:38:55.210Z,22.51
2023-03-15T03:39:31.293Z,22.49
2023-03-15T03:40:06.936Z,22.49
2023-03-15T03:40:43.557Z,22.52
2023-03-15T03:41:19.813Z,22.49
2023-03-15T03:41:55.584Z,22.49
2023-03-15T03:42:31.358Z,22.49
2023-03-15T03:43:07.384Z,22.49
2023-03-15T03:43:43.604Z,22.51
2023-03-15T03:44:19.682Z,22.52
2023-03-15T03:44:55.226Z,22.50
2023-03-15T03:45:31.849Z,22.54
2023-03-15T03:46:07.407Z,22.54
2023-03-15T03:46:43.816Z,22.51
2023-03-15T03:47:19.520Z,22.54
2023-03-15T03:47:54.622Z,22.51
2023-03-15T03:48:31.076Z,22.51
2023-03-15T03:49:06.807Z,22.52
2023-03-15T03:49:43.496Z,22.56
2023-03-15T03:50:19.666Z,22.53
2023-03-15T03:50:56.222Z,22.56
2023-03-15T03:51:32.474Z,22.60
2023-03-15T03:52:08.716Z,22.59
2023-03-15T03:52:44.567Z,22.56
2023-03-15T03:53:20.179Z,22.51
2023-03-15T03:53:56.273Z,22.50
2023-03-15T03:54:32.306Z,22.51
2023-03-15T03:55:08.276Z,22.54
2023-03-15T03:55:44.973Z,22.58
2023-03-15T03:56:20.913Z,22.58
2023-03-15T03:56:56.889Z,22.52
2023-03-15T03:57:33.004Z,22.51
2023-03-15T03:58:09.643Z,22.50
2023-03-15T03:58:44.819Z,22.56
2023-03-15T03:59:21.034Z,22.56
2023-03-15T03:59:56.947Z,22.52
2023-03-15T04:00:32.580Z,22.50
2023-03-15T04:01:08.902Z,22.51
2023-03-15T04:01:44.734Z,22.53
2023-03-15T04:02:20.910Z,22.53
2023-03-15T04:02:57.368Z,22.51
2023-03-15T04:03:32.437Z,22.56
2023-03-15T04:04:08.043Z,22.54
2023-03-15T04:04:44.214Z,22.56
2023-03-15T04:05:20.256Z,22.58
2023-03-15T04:05:55.972Z,22.54
2023-03-15T04:06:32.149Z,22.51
2023-03-15T04:07:08.387Z,22.51
2023-03-15T04:07:44.618Z,22.54
2023-03-15T04:08:20.829Z,22.55
2023-03-15T04:08:56.265Z,22.59
2023-03-15T04:09:32.031Z,22.60
2023-03-15T04:10:08.353Z,22.58
2023-03-15T04:10:44.567Z,22.55
2023-03-15T04:11:20.684Z,22.55
2023-03-15T04:11:56.662Z,22.53
2023-03-15T04:12:32.578Z,22.51
2023-03-15T04:13:08.477Z,22.56
2023-03-15T04:13:44.370Z,22.57
2023-03-15T04:14:20.252Z,22.57
2023-03-15T04:14:55.901Z,22.54
2023-03-15T04:15:31.767Z,22.56
2023-03-15T04:16:07.524Z,22.56
2023-03-15T04:16:43.755Z,22.57
2023-03-15T04:17:19.360Z,22.62
2023-03-15T04:17:55.516Z,22.55
2023-03-15T04:18:31.802Z,22.51
2023-03-15T04:19:07.885Z,22.51
2023-03-15T04:19:43.892Z,22.50
2023-03-15T04:20:19.222Z,22.47
2023-03-15T04:20:56.146Z,22.49
2023-03-15T04:21:31.765Z,22.50
2023-03-15T04:22:07.610Z,22.50
2023-03-15T04:22:43.897Z,22.56
2023-03-15T04:23:20.384Z,22.55
2023-03-15T04:23:55.854Z,22.51
2023-03-15T04:24:32.024Z,22.50
2023-03-15T04:25:07.933Z,22.51
2023-03-15T04:25:43.445Z,22.50
2023-03-15T04:26:19.880Z,22.52
2023-03-15T04:26:55.556Z,22.50
2023-03-15T04:27:31.899Z,22.54
2023-03-15T04:28:08.380Z,22.52
2023-03-15T04:28:44.172Z,22.52
2023-03-15T04:29:20.549Z,22.55
2023-03-15T04:29:56.629Z,22.56
2023-03-15T04:30:32.429Z,22.52
2023-03-15T04:31:08.296Z,22.56
2023-03-15T04:31:44.492Z,22.56
2023-03-15T04:32:20.427Z,22.52
2023-03-15T04:32:56.187Z,22.55
2023-03-15T04:33:31.831Z,22.51
2023-03-15T04:34:08.212Z,22.55
2023-03-15T04:34:44.736Z,22.56
2023-03-15T04:35:21.273Z,22.59
2023-03-15T04:35:57.081Z,22.60
2023-03-15T04:36:32.814Z,22.60
2023-03-15T04:37:08.934Z,22.53
2023-03-15T04:37:44.748Z,22.54
2023-03-15T04:38:20.220Z,22.50
2023-03-15T04:38:56.210Z,22.54
2023-03-15T04:39:32.429Z,22.57
2023-03-15T04:40:08.737Z,22.60
2023-03-15T04:40:45.582Z,22.60
2023-03-15T04:41:21.273Z,22.57
2023-03-15T04:41:57.663Z,22.57
2023-03-15T04:42:33.496Z,22.55
2023-03-15T04:43:08.917Z,22.50
2023-03-15T04:43:45.527Z,22.50
2023-03-15T04:44:21.392Z,22.51
2023-03-15T04:44:57.300Z,22.50
2023-03-15T04:45:33.390Z,22.51
2023-03-15T04:46:09.515Z,22.53
2023-03-15T04:46:45.377Z,22.54
2023-03-15T04:47:21.532Z,22.53
2023-03-15T04:47:56.562Z,22.50
2023-03-15T04:48:32.582Z,22.55
2023-03-15T04:49:08.654Z,22.53
2023-03-15T04:49:44.997Z,22.55
2023-03-15T04:50:20.570Z,22.54
2023-03-15T04:50:57.112Z,22.52
2023-03-15T04:51:32.914Z,22.55
2023-03-15T04:52:09.435Z,22.53
2023-03-15T04:52:45.451Z,22.57
2023-03-15T04:53:21.073Z,22.56
2023-03-15T04:53:56.544Z,22.53
2023-03-15T04:54:32.812Z,22.55
2023-03-15T04:55:09.230Z,22.54
2023-03-15T04:55:45.164Z,22.57
2023-03-15T04:56:20.815Z,22.55
2023-03-15T04:56:57.449Z,22.55
2023-03-15T04:57:33.302Z,22.51
2023-03-15T04:58:09.055Z,22.56
2023-03-15T04:58:44.470Z,22.53
2023-03-15T04:59:20.846Z,22.49
2023-03-15T04:59:56.785Z,22.49
2023-03-15T05:00:32.352Z,22.56
2023-03-15T05:01:08.517Z,22.54
2023-03-15T05:01:44.503Z,22.57
2023-03-15T05:02:20.585Z,22.55
2023-03-15T05:02:56.505Z,22.49
2023-03-15T05:03:32.346Z,22.51
2023-03-15T05:04:08.175Z,22.50
2023-03-15T05:04:44.162Z,22.47
2023-03-15T05:05:20.291Z,22.50
2023-03-15T05:05:55.717Z,22.57
2023-03-15T05:06:31.995Z,22.56
2023-03-15T05:07:07.601Z,22.51
2023-03-15T05:07:43.174Z,22.55
2023-03-15T05:08:18.909Z,22.56
2023-03-15T05:08:54.354Z,22.57
2023-03-15T05:09:30.610Z,22.55
2023-03-15T05:10:07.018Z,22.51
2023-03-15T05:10:43.665Z,22.50
2023-03-15T05:11:19.554Z,22.52
2023-03-15T05:11:55.446Z,22.52
2023-03-15T05:12:31.571Z,22.49
2023-03-15T05:13:06.862Z,22.52
2023-03-15T05:13:42.343Z,22.50
2023-03-15T05:14:18.821Z,22.51
2023-03-15T05:14:54.913Z,22.53
2023-03-15T05:15:30.731Z,22.55
2023-03-15T05:16:07.283Z,22.51
2023-03-15T05:16:43.133Z,22.49
2023-03-15T05:17:19.241Z,22.51
2023-03-15T05:17:54.722Z,22.57
2023-03-15T05:18:30.545Z,22.56
2023-03-15T05:19:05.866Z,22.56
2023-03-15T05:19:42.260Z,22.58
2023-03-15T05:20:18.176Z,22.61
2023-03-15T05:20:54.128Z,22.55
2023-03-15T05:21:30.371Z,22.55
2023-03-15T05:22:06.227Z,22.54
2023-03-15T05:22:42.262Z,22.54
2023-03-15T05:23:18.153Z,22.53
2023-03-15T05:23:53.937Z,22.47
2023-03-15T05:24:29.474Z,22.51
2023-03-15T05:25:05.183Z,22.50
2023-03-15T05:25:41.590Z,22.55
2023-03-15T05:26:17.784Z,22.52
2023-03-15T05:26:53.965Z,22.49
2023-03-15T05:27:29.925Z,22.53
2023-03-15T05:28:05.914Z,22.56
2023-03-15T05:28:41.368Z,22.57
2023-03-15T05:29:17.330Z,22.57
2023-03-15T05:29:52.610Z,22.56
2023-03-15T05:30:28.928Z,22.49
2023-03-15T05:31:05.465Z,22.55
2023-03-15T05:31:41.304Z,22.55
2023-03-15T05:32:17.186Z,22.48
2023-03-15T05:32:53.434Z,22.47
2023-03-15T05:33:29.249Z,22.52
2023-03-15T05:34:05.442Z,22.48
2023-03-15T05:34:41.062Z,22.49
2023-03-15T05:35:16.776Z,22.52
2023-03-15T05:35:52.756Z,22.56
2023-03-15T05:36:28.297Z,22.51
2023-03-15T05:37:04.228Z,22.52
2023-03-15T05:37:40.759Z,22.52
2023-03-15T05:38:16.691Z,22.55
2023-03-15T05:38:52.457Z,22.54
2023-03-15T05:39:28.476Z,22.52
2023-03-15T05:40:04.591Z,22.59
2023-03-15T05:40:40.141Z,22.53
2023-03-15T05:41:16.532Z,22.49
2023-03-15T05:41:52.267Z,22.52
2023-03-15T05:42:28.688Z,22.55
2023-03-15T05:43:04.618Z,22.50
2023-03-15T05:43:40.543Z,22.49
2023-03-15T05:44:17.452Z,22.47
2023-03-15T05:44:53.501Z,22.52
2023-03-15T05:45:29.119Z,22.53
2023-03-15T05:46:05.010Z,22.55
2023-03-15T05:46:41.407Z,22.51
2023-03-15T05:47:17.536Z,22.56
2023-03-15T05:47:53.361Z,22.52
2023-03-15T05:48:29.785Z,22.48
2023-03-15T05:49:05.674Z,22.50
2023-03-15T05:49:40.194Z,22.52
2023-03-15T05:50:13.574Z,22.50
2023-03-15T05:50:49.677Z,22.54
2023-03-15T05:51:25.239Z,22.49
2023-03-15T05:52:00.652Z,22.49
2023-03-15T05:52:37.096Z,22.49
2023-03-15T05:53:12.634Z,22.48
2023-03-15T05:53:48.970Z,22.51
2023-03-15T05:54:25.023Z,22.48
2023-03-15T05:55:01.372Z,22.54
2023-03-15T05:55:37.039Z,22.58
2023-03-15T05:56:13.077Z,22.57
2023-03-15T05:56:48.641Z,22.54
2023-03-15T05:57:24.969Z,22.57
2023-03-15T05:58:01.067Z,22.57
2023-03-15T05:58:37.496Z,22.58
2023-03-15T05:59:13.946Z,22.58
2023-03-15T05:59:49.775Z,22.57
2023-03-15T06:00:26.092Z,22.51
2023-03-15T06:01:01.740Z,22.54
2023-03-15T06:01:37.773Z,22.56
2023-03-15T06:02:13.235Z,22.54
2023-03-15T06:02:49.054Z,22.54
2023-03-15T06:03:25.305Z,22.49
2023-03-15T06:04:01.924Z,22.51
2023-03-15T06:04:37.879Z,22.51
2023-03-15T06:05:14.336Z,22.51
2023-03-15T06:05:50.430Z,22.48
2023-03-15T06:06:26.369Z,22.50
2023-03-15T06:07:02.291Z,22.46
2023-03-15T06:07:37.591Z,22.47
2023-03-15T06:08:13.926Z,22.46
2023-03-15T06:08:50.480Z,22.46
2023-03-15T06:09:26.200Z,22.51
2023-03-15T06:10:02.768Z,22.54
2023-03-15T06:10:39.074Z,22.54
2023-03-15T06:11:15.107Z,22.48
2023-03-15T06:11:51.427Z,22.48
2023-03-15T06:12:27.188Z,22.45
2023-03-15T06:13:02.617Z,22.44
2023-03-15T06:13:38.484Z,22.46
2023-03-15T06:14:14.739Z,22.50
2023-03-15T06:14:51.528Z,22.49
2023-03-15T06:15:27.484Z,22.51
2023-03-15T06:16:03.879Z,22.54
2023-03-15T06:16:40.208Z,22.53
2023-03-15T06:17:16.408Z,22.54
2023-03-15T06:17:52.637Z,22.52
2023-03-15T06:18:27.753Z,22.49
2023-03-15T06:19:03.794Z,22.53
2023-03-15T06:19:40.656Z,22.51
2023-03-15T06:20:16.769Z,22.50
2023-03-15T06:20:52.882Z,22.54
2023-03-15T06:21:28.467Z,22.57
2023-03-15T06:22:04.740Z,22.54
2023-03-15T06:22:40.749Z,22.49
2023-03-15T06:23:16.630Z,22.50
2023-03-15T06:23:52.342Z,22.47
2023-03-15T06:24:28.554Z,22.44
2023-03-15T06:25:04.950Z,22.42
2023-03-15T06:25:41.182Z,22.47
2023-03-15T06:26:53.116Z,22.49
2023-03-15T06:27:29.161Z,22.50
2023-03-15T06:28:05.795Z,22.52
2023-03-15T06:29:17.192Z,22.49
2023-03-15T06:29:53.054Z,22.48
2023-03-15T06:30:28.732Z,22.44
2023-03-15T06:31:05.129Z,22.43
2023-03-15T06:31:41.068Z,22.45
2023-03-15T06:32:17.014Z,22.43
2023-03-15T06:32:53.622Z,22.43
2023-03-15T06:33:29.349Z,22.42
2023-03-15T06:34:05.436Z,22.42
2023-03-15T06:34:40.963Z,22.47
2023-03-15T06:35:17.753Z,22.49
2023-03-15T06:35:53.858Z,22.51
2023-03-15T06:36:29.942Z,22.52
2023-03-15T06:37:06.336Z,22.55
2023-03-15T06:37:42.160Z,22.48
2023-03-15T06:38:18.397Z,22.48
2023-03-15T06:38:54.465Z,22.44
2023-03-15T06:39:30.562Z,22.44
2023-03-15T06:40:06.052Z,22.46
2023-03-15T06:40:41.936Z,22.48
2023-03-15T06:41:18.154Z,22.48
2023-03-15T06:41:54.476Z,22.51
2023-03-15T06:42:30.525Z,22.49
2023-03-15T06:43:06.920Z,22.46
2023-03-15T06:43:43.078Z,22.43
2023-03-15T06:44:19.168Z,22.46
2023-03-15T06:44:55.544Z,22.49
2023-03-15T06:46:07.026Z,22.49
2023-03-15T06:46:43.082Z,22.49
2023-03-15T06:47:18.818Z,22.50
2023-03-15T06:47:54.915Z,22.48
2023-03-15T06:48:31.342Z,22.49
2023-03-15T06:49:07.227Z,22.49
2023-03-15T06:49:43.133Z,22.51
2023-03-15T06:50:18.903Z,22.54
2023-03-15T06:50:54.627Z,22.51
2023-03-15T06:51:30.463Z,22.51
2023-03-15T06:52:07.174Z,22.51
2023-03-15T06:53:19.396Z,22.47
2023-03-15T06:53:55.300Z,22.51
2023-03-15T06:54:31.606Z,22.48
2023-03-15T06:55:07.404Z,22.46
2023-03-15T06:55:43.144Z,22.51
2023-03-15T06:56:18.802Z,22.51
2023-03-15T06:56:54.782Z,22.49
2023-03-15T06:57:30.822Z,22.48
2023-03-15T06:58:06.670Z,22.44
2023-03-15T06:58:43.019Z,22.42
2023-03-15T06:59:19.939Z,22.42
2023-03-15T06:59:56.047Z,22.46
2023-03-15T07:00:32.196Z,22.44
2023-03-15T07:01:08.087Z,22.43
2023-03-15T07:01:43.564Z,22.48
2023-03-15T07:02:19.750Z,22.49
2023-03-15T07:02:55.659Z,22.55
2023-03-15T07:03:32.015Z,22.58
2023-03-15T07:04:08.458Z,22.55
2023-03-15T07:04:43.810Z,22.49
2023-03-15T07:05:19.989Z,22.50
2023-03-15T07:05:55.954Z,22.45
2023-03-15T07:06:32.436Z,22.45
2023-03-15T07:07:07.688Z,22.47
2023-03-15T07:07:43.826Z,22.48
2023-03-15T07:08:20.417Z,22.48
2023-03-15T07:10:08.426Z,22.51
2023-03-15T07:10:44.485Z,22.51
2023-03-15T07:11:20.282Z,22.46
2023-03-15T07:11:56.120Z,22.46
2023-03-15T07:12:32.185Z,22.45
2023-03-15T07:13:08.148Z,22.44
2023-03-15T07:13:44.058Z,22.47
2023-03-15T07:14:20.272Z,22.49
2023-03-15T07:14:56.561Z,22.46
2023-03-15T07:15:32.869Z,22.44
2023-03-15T07:16:09.430Z,22.43
2023-03-15T07:16:45.882Z,22.43
2023-03-15T07:17:21.380Z,22.44
2023-03-15T07:17:56.891Z,22.43
2023-03-15T07:18:32.800Z,22.41
2023-03-15T07:19:09.153Z,22.43
2023-03-15T07:19:55.811Z,22.47
2023-03-15T07:20:31.411Z,22.45
2023-03-15T07:21:07.533Z,22.45
2023-03-15T07:21:43.475Z,22.41
2023-03-15T07:22:19.698Z,22.44
2023-03-15T07:22:55.799Z,22.42
2023-03-15T07:23:31.835Z,22.39
2023-03-15T07:24:07.701Z,22.41
2023-03-15T07:24:43.359Z,22.42
2023-03-15T07:25:18.990Z,22.43
2023-03-15T07:26:31.044Z,22.46
2023-03-15T07:27:06.740Z,22.47
2023-03-15T07:27:43.060Z,22.44
2023-03-15T07:28:19.327Z,22.44
2023-03-15T07:28:55.207Z,22.47
2023-03-15T07:30:07.365Z,22.46
2023-03-15T07:30:43.031Z,22.49
2023-03-15T07:31:18.997Z,22.43
2023-03-15T07:31:54.929Z,22.46
2023-03-15T07:32:30.909Z,22.45
2023-03-15T07:33:06.598Z,22.49
2023-03-15T07:33:42.621Z,22.54
2023-03-15T07:34:18.999Z,22.54
2023-03-15T07:34:55.080Z,22.49
2023-03-15T07:36:06.580Z,22.47
2023-03-15T07:36:42.152Z,22.49
2023-03-15T07:37:18.616Z,22.48
2023-03-15T07:37:54.590Z,22.51
2023-03-15T07:38:30.901Z,22.45
2023-03-15T07:39:07.015Z,22.44
2023-03-15T07:39:43.267Z,22.45
2023-03-15T07:40:19.480Z,22.45
2023-03-15T07:40:55.556Z,22.45
2023-03-15T07:41:30.969Z,22.45
2023-03-15T07:42:07.400Z,22.42
2023-03-15T07:42:43.817Z,22.45
2023-03-15T07:43:20.460Z,22.43
2023-03-15T07:43:58.401Z,22.43
2023-03-15T07:44:34.179Z,22.42
2023-03-15T07:45:10.262Z,22.39
2023-03-15T07:45:46.294Z,22.40
2023-03-15T07:46:21.817Z,22.41
2023-03-15T07:46:56.825Z,22.40
2023-03-15T07:47:32.739Z,22.40
2023-03-15T07:48:08.376Z,22.42
2023-03-15T07:48:44.141Z,22.44